Jump to content

  •  

UNITED AIRLINES FLIGHT UA1674 FLOWN ON 01-03-2018 BY CAPTAIN JIM BOERMAN

Pilot StatsCaptain Jim Boerman (LDP136) • 4,772.1 total hours • 1,444 total flights [View Logbook]
FLIGHT DETAILS
StatusReceived and approved on 2018-01-03 at 15:01:48
Origin AirportChicago-OHare Intl (KORD) • Chicago, Illinois, United States (668 feet MSL)
Filed Flight PlanKORD CADIZ J89 IIU J99 VXV J46 AMG J45 OMN J79 PBI BR54V MRLIN BR55V ZBV B760 BORDO UL210 GELOG UL795 BIBIP UG442 ABA UA567 NOREX TNCA
Destination AirportOranjestad-Reina Beatrix Intl. (TNCA) • Aruba Island, Aruba (62 feet MSL)
Alternate AirportWillemstad-Hato Intl. (TNCC) • Curacao I, Netherlands Antilles (29 feet MSL)
AirlineUnited Airlines
AircraftBoeing 737-900 | Winglets (73X / B737-900)
FS Aircraft UsedBoeing 737-924 United Airlines (Merger) Winglets
Cruising AltitudeFL330
Distance Flown2,002 nautical miles
Passengers Onboard93 passengers (53.45% full)
DEPARTURE DETAILS
Time Out09:15:06
Taxi Data140,979 lbs total with 29,749 lbs of fuel onboard
Takeoff Data09:41:34 (26 minutes after leaving gate/ramp) • 139,899 lbs total • 7° pitch at 157 knots
Departure METARKORD 031351Z 26005KT 6SM -SN FEW020 OVC043 M09/M13 A3001 RMK AO2 SLP176 P0000 T10941128
ARRIVAL DETAILS
Landing Data16:23:40 • 115,633 lbs total • 3° pitch doing 112 knots at a rate of -291.43 feet/minute with 4,148 lbs of fuel onboard
Time In16:30:06 (6 minutes after landing)
Ramp Weight115,378 lbs total
Total Fuel Used25,601 lbs
Total Block Time05:15:18 (5.3 hours) while 33 minutes were spent on the ground
Arrival METARTNCA 031900Z 11017G27KT 9999 SCT020 30/25 Q1009 A2980 NOSIG
MISCELLANEOUS DETAILS
LiveDISPATCH Version4.8.3.1
FS Version
FSUIPC Version5.12
OS VersionWindows 7 32-bit
Screen Resolution1920 x 1080
Pilot's CommentsNo Comments Reported
FLIGHT MAP